Paramaribo, Suriname

4:30 AM SRT op 21 februari 2017 (GMT -0300)
Tammenga Davis | | Change Station

Hoogte 10 ft 5.82 °N, 55.22 °W | Updated 22 seconds ago

Gedeeltelijk bewolkt
Gedeeltelijk bewolkt
74.6 °F
Voelt als 73 °F
N
0.0
Wind Variabel Wind van noord
Gusts 0.0 mijl/u

Vandaag
Hoog -- | Laag -- °F
--% Kans op neerslag
Gisteren
Hoog -- | Laag -- °F
Precip. -- inches
Druk 29.86 inches
Zicht -9999.0 mijlen
Wolken
Warmteindex 73 °F
Dauwpunt 71 °F
Vochtigheid 90%
Neerslag 0.00 inches
Dikte sneeuw Niet beschikbaar.
6:55 AM 6:53 PM
Afnemende halvemaan, 27% visible
METAR SMJP 210700Z 26002KT CAVOK 23/23 Q1011 NOSIG
Druk 29.86 inches
Zicht -9999.0 mijlen
Wolken
Warmteindex 73 °F
Dauwpunt 71 °F
Vochtigheid 90%
Neerslag 0.00 inches
Dikte sneeuw Niet beschikbaar.
6:55 AM 6:53 PM
Afnemende halvemaan, 27% visible
METAR SMJP 210700Z 26002KT CAVOK 23/23 Q1011 NOSIG

Get Your Daily Forecast Email!

Thanks for signing up!

Be on the lookout for a verification email in your inbox.

You'll start receiving the daily forecast at 8 AM.

×

10-Day Weather Forecast

No radar image for this location.
×

Almanac

Astronomie

Feb. 21, 2017 Opkomst Ondergang
Werkelijke tijd
Burgerlijke schemering
Nautische schemering
Astronomische schemering
Maan
Golflengte van het zichtbare licht
Daglengte
Tomorrow will be .
, % of the Moon is Illuminated

Extremen vandaag

Country Highs Country Lows

Community

WunderPhotos

Upload Photos

1,962,540 foto’s ge-upload!

WunderBlog® & News

Nearby

Luchtkwaliteit

  Luchtkwaliteit LK-index Verontreinigende stof
Not available.

Dikte sneeuw

Station Depth Geometrische hoogte

Aardbevingen

Stad Distance Mag. Time & Date
Minimum magnitude displayed is 2.5.

Watertemperatuur langs de kust

Plaats Temperatuur

Stations

Nabije weerstations

Locatie station Temp. Gevoelstemperatuur Dauwpunt Vochtigheid Wind Precip. Hoogte Geactualiseerd Type